Latest Weather Observations for Port Pirie Airport AWS

IDS60801

Issued at 9:31 pm CST Thursday 22 June 2017 (issued every 30 minutes, with the page automatically refreshed every 10 minutes)

About weather observations | Map of weather stations | Latest weather observations for SA | Other Formats
Station Details ID: 021139 Name: PORT PIRIE AERODROME AWS Lat: -33.24 Lon: 138.00 Height: 12.0 m
Data from the previous 72 hours. | See also: Recent months for locations in South Australia
Date/Time
CST
Temp
°C
App
Temp
°C
Dew
Point
°C
Rel
Hum
%
Delta-T
°C
Wind Press
QNH
hPa
Press
MSL
hPa
Rain since
9am
mm
Dir  Spd
km/h
Gust
km/h
Spd
kts
Gust
kts
22/09:30pm 7.9 4.4 1.5 64 2.6 NNE 9 9 5 5 1021.5 1021.5 0.0
22/09:00pm 6.9 3.4 1.0 66 2.3 NNE 9 11 5 6 1021.5 1021.5 0.0
22/08:30pm 7.7 3.7 0.7 61 2.8 NNE 11 13 6 7 1021.6 1021.6 0.0
22/08:00pm 8.6 5.1 1.5 61 2.9 NNE 9 11 5 6 1021.8 1021.8 0.0
22/07:30pm 10.0 6.2 1.9 57 3.4 NNE 11 11 6 6 1021.5 1021.5 0.0
22/07:00pm 10.0 6.6 2.1 58 3.3 NE 9 9 5 5 1021.7 1021.7 0.0
22/06:30pm 11.4 7.7 2.4 54 3.9 ENE 11 15 6 8 1021.3 1021.3 0.0
22/06:00pm 12.2 8.2 2.6 52 4.2 ENE 13 13 7 7 1021.1 1021.1 0.0
22/05:30pm 15.9 12.8 3.7 44 5.6 NNE 9 9 5 5 1021.3 1021.3 0.0
22/05:00pm 15.6 12.5 3.7 45 5.5 N 9 11 5 6 1021.3 1021.3 0.0
22/04:30pm 16.7 13.5 3.1 40 6.2 N 9 11 5 6 1021.6 1021.6 0.0
22/04:00pm 18.0 13.5 2.3 35 7.1 N 15 17 8 9 1021.5 1021.5 0.0
22/03:30pm 19.2 14.4 2.6 33 7.6 N 17 20 9 11 1021.7 1021.7 0.0
22/03:00pm 19.8 15.0 2.6 32 8.0 NNW 17 20 9 11 1021.9 1021.9 0.0
22/02:30pm 19.9 14.7 2.7 32 8.0 NNW 19 26 10 14 1022.0 1022.0 0.0
22/02:00pm 19.7 14.4 2.1 31 8.1 NNW 19 24 10 13 1022.4 1022.4 0.0
22/01:30pm 19.4 14.0 1.4 30 8.1 NNW 19 28 10 15 1022.6 1022.6 0.0
22/01:00pm 20.1 15.3 2.5 31 8.2 NNW 17 24 9 13 1023.1 1023.1 0.0
22/12:30pm 19.4 14.5 1.9 31 8.0 NNW 17 20 9 11 1023.5 1023.5 0.0
22/12:00pm 18.8 14.3 2.2 33 7.5 NNW 15 19 8 10 1024.2 1024.2 0.0
22/11:30am 18.3 14.3 2.6 35 7.2 N 13 19 7 10 1024.9 1024.9 0.0
22/11:00am 18.4 13.8 3.8 38 6.9 NNW 17 20 9 11 1025.6 1025.6 0.0
22/10:30am 16.9 12.9 2.9 39 6.4 N 13 17 7 9 1025.9 1025.9 0.0
22/10:00am 15.2 12.2 4.3 48 5.1 N 9 11 5 6 1026.1 1026.1 0.0
22/09:30am 12.9 11.8 5.1 59 3.6 CALM 0 7 0 4 1025.9 1025.9 0.0
22/09:00am 8.6 7.7 6.1 84 1.1 CALM 0 0 0 0 1026.0 1026.0 0.0
22/08:58am 8.2 7.2 5.8 85 1.1 CALM 0 0 0 0 1026.0 1026.0 0.0
22/08:30am 3.2 0.6 0.8 84 0.9 NE 4 6 2 3 1025.9 1025.9 0.0
22/08:00am 2.5 -0.6 -0.1 83 1.0 ENE 6 7 3 4 1025.6 1025.6 0.0
22/07:30am 2.8 -0.3 -0.1 81 1.1 E 6 6 3 3 1025.7 1025.7 0.0
22/07:00am 2.8 -0.5 -1.5 73 1.5 E 6 7 3 4 1025.4 1025.4 0.0
22/06:30am 4.9 0.8 0.1 71 1.8 NE 11 13 6 7 1025.3 1025.3 0.0
22/06:00am 6.7 2.9 -0.5 60 2.7 NE 9 15 5 8 1025.2 1025.2 0.0
22/05:30am 10.5 6.2 3.3 61 3.1 N 15 20 8 11 1025.0 1025.0 0.0
22/05:00am 8.8 5.0 5.9 82 1.3 N 15 19 8 10 1024.9 1024.9 0.0
22/04:56am 7.2 3.6 5.2 87 0.9 N 13 19 7 10 1024.9 1024.9 0.0
22/04:30am 2.2 -0.2 -0.2 84 0.9 NNE 2 7 1 4 1025.0 1025.0 0.0
22/04:00am 2.4 -0.7 0.1 85 0.9 SE 6 7 3 4 1024.8 1024.8 0.0
22/03:30am 2.4 0.4 -0.4 82 1.0 CALM 0 0 0 0 1024.9 1024.9 0.0
22/03:00am 2.9 -0.3 -0.5 78 1.2 ENE 6 7 3 4 1024.9 1024.9 0.0
22/02:30am 4.9 1.1 1.6 79 1.3 NNW 11 11 6 6 1025.2 1025.2 0.0
22/02:00am 3.3 -0.1 -0.3 77 1.3 WNW 7 9 4 5 1025.3 1025.3 0.0
22/01:30am 3.5 0.1 -0.3 76 1.4 W 7 9 4 5 1025.2 1025.2 0.0
22/01:00am 3.3 -0.1 -0.3 77 1.3 WSW 7 9 4 5 1025.4 1025.4 0.0
22/12:30am 3.6 0.2 -0.4 75 1.5 SW 7 9 4 5 1025.5 1025.5 0.0
22/12:00am 3.8 0.0 -0.4 74 1.5 SSW 9 9 5 5 1025.9 1025.9 0.0
 
Date/Time
CST
Temp
°C
App
Temp
°C
Dew
Point
°C
Rel
Hum
%
Delta-T
°C
Wind Press
QNH
hPa
Press
MSL
hPa
Rain since
9am
mm
Dir  Spd
km/h
Gust
km/h
Spd
kts
Gust
kts
21/11:30pm 4.6 0.5 -0.2 71 1.8 SSW 11 11 6 6 1025.9 1025.9 0.0
21/11:00pm 6.4 2.7 0.1 64 2.4 WSW 9 11 5 6 1026.0 1026.0 0.0
21/10:30pm 9.8 6.7 1.5 56 3.4 N 7 13 4 7 1025.9 1025.9 0.0
21/10:00pm 12.6 8.9 2.5 50 4.4 NE 11 15 6 8 1025.9 1025.9 0.0
21/09:30pm 8.9 5.9 1.8 61 2.9 ENE 7 11 4 6 1026.2 1026.2 0.0
21/09:00pm 10.3 6.2 2.2 57 3.4 ENE 13 15 7 8 1026.3 1026.3 0.0
21/08:30pm 7.4 3.2 1.7 67 2.3 ENE 13 15 7 8 1026.4 1026.4 0.0
21/08:00pm 7.6 2.7 2.3 69 2.2 E 17 19 9 10 1026.4 1026.4 0.0
21/07:30pm 7.9 3.8 2.4 68 2.3 ESE 13 15 7 8 1026.4 1026.4 0.0
21/07:00pm 9.1 5.9 3.3 67 2.5 ESE 9 11 5 6 1026.1 1026.1 0.0
21/06:30pm 9.0 4.3 3.2 67 2.5 E 17 17 9 9 1026.1 1026.1 0.0
21/06:00pm 11.0 7.7 4.5 64 2.9 SSW 11 11 6 6 1025.8 1025.8 0.0
21/05:30pm 12.7 9.4 4.7 58 3.6 SW 11 11 6 6 1025.5 1025.5 0.0
21/05:00pm 14.2 10.6 5.0 54 4.3 SW 13 15 7 8 1025.4 1025.4 0.0
21/04:30pm 16.1 12.6 5.4 49 5.1 SW 13 13 7 7 1025.3 1025.3 0.0
21/04:00pm 18.6 16.2 5.1 41 6.5 WNW 7 15 4 8 1025.3 1025.3 0.0
21/03:30pm 20.3 17.8 3.9 34 7.8 WNW 6 7 3 4 1025.4 1025.4 0.0
21/03:00pm 20.4 17.9 4.0 34 7.8 N 6 11 3 6 1025.7 1025.7 0.0
21/02:30pm 20.3 18.3 4.4 35 7.6 WNW 4 9 2 5 1025.7 1025.7 0.0
21/02:00pm 20.7 18.3 5.1 36 7.7 NNE 7 11 4 6 1025.9 1025.9 0.0
21/01:30pm 19.7 16.7 4.2 36 7.4 NNE 9 17 5 9 1026.1 1026.1 0.0
21/01:00pm 19.4 16.4 4.0 36 7.3 N 9 15 5 8 1026.6 1026.6 0.0
21/12:30pm 19.1 15.9 3.3 35 7.4 NW 9 15 5 8 1027.2 1027.2 0.0
21/12:00pm 18.4 15.8 3.1 36 7.1 W 6 11 3 6 1027.9 1027.9 0.0
21/11:30am 17.9 15.8 4.1 40 6.5 SSE 4 7 2 4 1027.9 1027.9 0.0
21/11:00am 16.7 14.8 5.0 46 5.6 WNW 4 7 2 4 1028.3 1028.3 0.0
21/10:30am 14.7 12.9 5.5 54 4.3 WSW 4 7 2 4 1028.8 1028.8 0.0
21/10:00am 12.6 11.5 5.1 60 3.5 CALM 0 0 0 0 1028.8 1028.8 0.0
21/09:30am 10.7 8.5 5.5 70 2.4 ESE 6 7 3 4 1028.6 1028.6 0.0
21/09:00am 7.7 4.9 5.0 83 1.2 SE 9 13 5 7 1028.4 1028.4 0.0
21/08:30am 5.0 0.9 4.1 94 0.4 SSE 15 17 8 9 1028.3 1028.3 0.0
21/08:00am 2.7 -1.8 2.3 97 0.2 SSE 15 17 8 9 1027.9 1027.9 0.0
21/07:30am 1.2 -3.9 0.6 96 0.2 SE 17 19 9 10 1027.5 1027.5 0.0
21/07:00am 0.8 -4.0 0.1 95 0.3 SE 15 15 8 8 1027.5 1027.5 0.0
21/06:30am 0.8 -3.7 -0.1 94 0.3 SE 13 17 7 9 1027.4 1027.4 0.0
21/06:00am 0.8 -3.7 -0.1 94 0.3 SE 13 15 7 8 1027.3 1027.3 0.0
21/05:30am 1.1 -4.1 0.4 95 0.3 SE 17 19 9 10 1027.2 1027.2 0.0
21/05:00am 0.2 -4.7 -0.8 93 0.4 SSE 15 17 8 9 1026.9 1026.9 0.0
21/04:30am 0.8 -4.1 -0.3 92 0.4 ESE 15 19 8 10 1026.8 1026.8 0.0
21/04:00am 1.2 -3.3 -0.1 91 0.5 ESE 13 17 7 9 1026.7 1026.7 0.0
21/03:30am 1.2 -3.7 -0.3 90 0.5 ESE 15 17 8 9 1026.8 1026.8 0.0
21/03:00am 1.2 -3.3 -0.4 89 0.6 ESE 13 15 7 8 1026.9 1026.9 0.0
21/02:30am 1.8 -2.7 0.0 88 0.7 ESE 13 15 7 8 1026.8 1026.8 0.0
21/02:00am 1.7 -3.2 -0.4 86 0.8 SE 15 17 8 9 1026.7 1026.7 0.0
21/01:30am 2.7 -2.4 0.6 86 0.8 SE 17 19 9 10 1026.4 1026.4 0.0
21/01:00am 2.9 -1.5 0.6 85 0.9 SE 13 15 7 8 1026.4 1026.4 0.0
21/12:30am 3.2 -1.9 0.9 85 0.9 SSE 17 17 9 9 1026.5 1026.5 0.0
21/12:00am 3.2 -1.9 0.9 85 0.9 SSE 17 19 9 10 1026.5 1026.5 0.0
 
Date/Time
CST
Temp
°C
App
Temp
°C
Dew
Point
°C
Rel
Hum
%
Delta-T
°C
Wind Press
QNH
hPa
Press
MSL
hPa
Rain since
9am
mm
Dir  Spd
km/h
Gust
km/h
Spd
kts
Gust
kts
20/11:30pm 3.3 -1.8 1.0 85 0.9 SSE 17 17 9 9 1026.7 1026.7 0.0
20/11:00pm 3.3 -1.4 0.9 84 0.9 SE 15 17 8 9 1026.8 1026.8 0.0
20/10:30pm 2.9 -1.9 0.1 82 1.0 SSE 15 17 8 9 1026.9 1026.9 0.0
20/10:00pm 3.9 -0.5 0.2 77 1.4 ESE 13 15 7 8 1026.9 1026.9 0.0
20/09:30pm 4.5 0.1 0.6 76 1.5 ESE 13 15 7 8 1027.1 1027.1 0.0
20/09:00pm 5.4 0.8 1.3 75 1.6 ESE 15 17 8 9 1027.1 1027.1 0.0
20/08:30pm 5.4 0.7 1.1 74 1.7 ESE 15 17 8 9 1027.2 1027.2 0.0
20/08:00pm 5.2 0.1 0.6 72 1.8 SE 17 20 9 11 1027.1 1027.1 0.0
20/07:30pm 6.4 1.4 1.3 70 2.0 SE 17 17 9 9 1027.0 1027.0 0.0
20/07:00pm 7.4 3.1 1.3 65 2.5 SE 13 17 7 9 1026.7 1026.7 0.0
20/06:30pm 8.9 4.7 1.6 60 3.0 SE 13 15 7 8 1026.6 1026.6 0.0
20/06:00pm 10.7 7.6 1.3 52 3.9 E 7 9 4 5 1026.3 1026.3 0.0
20/05:30pm 16.1 13.4 3.5 43 5.8 NE 7 9 4 5 1026.1 1026.1 0.0
20/05:00pm 18.0 16.6 3.5 38 6.8 CALM 0 0 0 0 1026.1 1026.1 0.0
20/04:30pm 19.3 18.0 3.9 36 7.3 CALM 0 0 0 0 1026.0 1026.0 0.0
20/04:00pm 19.2 16.5 3.8 36 7.3 NNW 7 11 4 6 1026.1 1026.1 0.0
20/03:30pm 19.5 16.8 3.6 35 7.5 NW 7 11 4 6 1026.0 1026.0 0.0
20/03:00pm 19.7 16.6 3.8 35 7.5 WNW 9 13 5 7 1026.0 1026.0 0.0
20/02:30pm 19.5 16.2 4.4 37 7.2 WNW 11 17 6 9 1026.3 1026.3 0.0
20/02:00pm 19.2 16.4 5.3 40 6.8 NNW 9 13 5 7 1026.4 1026.4 0.0
20/01:30pm 18.9 15.4 5.4 41 6.5 NW 13 17 7 9 1026.6 1026.6 0.0
20/01:00pm 18.2 13.9 5.4 43 6.2 NNW 17 20 9 11 1026.8 1026.8 0.0
20/12:30pm 17.4 12.7 5.0 44 5.9 NNW 19 22 10 12 1027.3 1027.3 0.0
20/12:00pm 17.7 13.5 5.6 45 5.8 NW 17 24 9 13 1027.8 1027.8 0.0
20/11:30am 16.8 13.5 6.3 50 5.1 NW 13 17 7 9 1028.2 1028.2 0.0
20/11:00am 16.4 13.3 7.3 55 4.5 NNW 13 17 7 9 1028.3 1028.3 0.0
20/10:30am 16.0 12.5 7.2 56 4.3 NNW 15 19 8 10 1028.4 1028.4 0.0
20/10:00am 14.9 11.7 6.7 58 4.0 NNW 13 17 7 9 1028.3 1028.3 0.0
20/09:30am 12.8 10.4 7.0 68 2.8 NNW 9 13 5 7 1028.2 1028.2 0.0
20/09:00am 9.2 7.9 7.8 91 0.7 E 4 6 2 3 1027.7 1027.7 0.0
20/08:30am 5.7 2.9 5.3 97 0.2 E 9 11 5 6 1027.4 1027.4 0.0
20/08:00am 2.3 -1.9 1.7 96 0.2 ESE 13 13 7 7 1027.3 1027.3 0.0
20/07:30am 0.9 -2.8 0.2 95 0.3 ENE 9 11 5 6 1027.2 1027.2 0.0
20/07:00am 1.1 -3.3 0.2 94 0.3 ENE 13 15 7 8 1026.9 1026.9 0.0
20/06:30am 1.4 -1.6 0.7 95 0.3 E 6 7 3 4 1026.9 1026.9 0.0
20/06:00am 1.1 -2.5 0.4 95 0.3 SE 9 11 5 6 1026.7 1026.7 0.0
20/05:30am 1.7 -1.8 1.0 95 0.3 SE 9 11 5 6 1026.6 1026.6 0.0
20/05:00am 1.4 -1.8 0.7 95 0.3 SE 7 9 4 5 1026.5 1026.5 0.0
20/04:30am 1.4 -1.6 0.5 94 0.3 SE 6 9 3 5 1026.6 1026.6 0.0
20/04:00am 1.4 -1.7 0.4 93 0.4 SE 6 7 3 4 1026.6 1026.6 0.0
20/03:30am 1.9 -1.1 0.7 92 0.4 SE 6 7 3 4 1026.7 1026.7 0.0
20/03:00am 2.6 -0.3 1.6 93 0.4 E 6 7 3 4 1026.9 1026.9 0.0
20/02:30am 2.4 -0.7 1.2 92 0.5 ESE 7 9 4 5 1027.0 1027.0 0.0
20/02:00am 3.0 0.0 1.7 91 0.5 NE 7 7 4 4 1027.2 1027.2 0.0
20/01:30am 3.0 0.1 1.2 88 0.7 NE 6 7 3 4 1027.5 1027.5 0.0
20/01:00am 3.6 0.8 2.1 90 0.6 NE 6 9 3 5 1027.5 1027.5 0.0
20/12:30am 3.7 0.8 2.4 91 0.5 NE 7 9 4 5 1027.7 1027.7 0.0
20/12:00am 4.5 1.8 3.5 93 0.4 NE 7 9 4 5 1028.0 1028.0 0.0
 
Date/Time
CST
Temp
°C
App
Temp
°C
Dew
Point
°C
Rel
Hum
%
Delta-T
°C
Wind Press
QNH
hPa
Press
MSL
hPa
Rain since
9am
mm
Dir  Spd
km/h
Gust
km/h
Spd
kts
Gust
kts
19/11:30pm 4.0 0.8 2.8 92 0.5 ESE 9 11 5 6 1028.1 1028.1 0.0
19/11:00pm 4.2 -0.2 2.9 91 0.5 ESE 15 15 8 8 1028.2 1028.2 0.0
19/10:30pm 5.1 1.2 3.6 90 0.6 SE 13 17 7 9 1028.4 1028.4 0.0
19/10:00pm 6.2 2.8 4.2 87 0.9 ESE 11 13 6 7 1028.6 1028.6 0.0

Other Formats:

Comma delimited format used in spreadsheet applications
http://www.bom.gov.au/fwo/IDS60801/IDS60801.99749.axf

JavaScript Object Notation format (JSON) in row-major order
http://www.bom.gov.au/fwo/IDS60801/IDS60801.99749.json